createdAt,value
2023-02-06T00:04:30.271Z,5.70
2023-02-06T00:09:38.369Z,7.13
2023-02-06T00:14:42.140Z,6.22
2023-02-06T00:19:46.159Z,6.68
2023-02-06T00:24:52.535Z,7.45
2023-02-06T00:29:54.068Z,6.85
2023-02-06T00:34:55.627Z,7.03
2023-02-06T00:40:00.864Z,9.40
2023-02-06T00:45:07.944Z,7.50
2023-02-06T00:50:11.787Z,7.00
2023-02-06T00:55:13.616Z,6.80
2023-02-06T01:00:27.017Z,6.40
2023-02-06T01:05:30.533Z,6.15
2023-02-06T01:10:37.024Z,7.60
2023-02-06T01:15:38.617Z,6.60
2023-02-06T01:20:47.567Z,6.90
2023-02-06T01:25:50.261Z,7.75
2023-02-06T01:31:01.799Z,5.97
2023-02-06T01:36:05.765Z,6.40
2023-02-06T01:41:11.304Z,6.47
2023-02-06T01:46:17.257Z,7.28
2023-02-06T01:51:28.037Z,6.73
2023-02-06T02:01:36.220Z,5.72
2023-02-06T02:06:42.028Z,8.13
2023-02-06T02:11:58.601Z,6.10
2023-02-06T02:17:10.914Z,7.50
2023-02-06T02:22:45.184Z,10.13
2023-02-06T02:28:26.960Z,9.75
2023-02-06T02:34:17.847Z,7.13
2023-02-06T02:39:48.285Z,8.00
2023-02-06T02:45:15.534Z,7.38
2023-02-06T02:50:19.728Z,6.78
2023-02-06T02:55:35.068Z,7.40
2023-02-06T03:00:47.468Z,8.27
2023-02-06T03:06:14.362Z,7.88
2023-02-06T03:11:22.208Z,8.70
2023-02-06T03:16:57.785Z,7.38
2023-02-06T03:22:03.231Z,9.65
2023-02-06T03:27:11.128Z,8.60
2023-02-06T03:32:48.453Z,8.60
2023-02-06T03:37:55.598Z,10.35
2023-02-06T03:43:00.707Z,8.00
2023-02-06T03:48:15.047Z,8.23
2023-02-06T03:53:19.325Z,9.50
2023-02-06T03:58:22.407Z,8.18
2023-02-06T04:03:29.266Z,8.93
2023-02-06T04:08:42.814Z,8.50
2023-02-06T04:13:44.344Z,9.13
2023-02-06T04:18:45.881Z,12.18
2023-02-06T04:23:54.685Z,9.60
2023-02-06T04:28:57.408Z,9.20
2023-02-06T04:33:58.931Z,7.78
2023-02-06T04:39:05.185Z,9.80
2023-02-06T04:44:09.114Z,8.25
2023-02-06T04:49:18.532Z,11.13
2023-02-06T04:54:22.572Z,9.95
2023-02-06T04:59:26.364Z,12.02
2023-02-06T05:04:33.190Z,10.90
2023-02-06T05:09:42.052Z,10.02
2023-02-06T05:14:55.837Z,9.00
2023-02-06T05:19:58.427Z,11.00
2023-02-06T05:30:17.046Z,9.80
2023-02-06T05:35:38.198Z,8.55
2023-02-06T05:40:40.171Z,11.48
2023-02-06T05:45:51.135Z,9.70
2023-02-06T05:50:55.024Z,9.88
2023-02-06T05:55:57.719Z,12.60
2023-02-06T06:01:09.972Z,10.43
2023-02-06T06:06:18.798Z,11.77
2023-02-06T06:11:20.677Z,11.95
2023-02-06T06:16:24.567Z,9.13
2023-02-06T06:21:29.416Z,9.75
2023-02-06T06:26:40.529Z,10.32
2023-02-06T06:31:44.126Z,10.20
2023-02-06T06:36:45.749Z,8.10
2023-02-06T06:41:47.314Z,8.93
2023-02-06T06:46:51.710Z,10.25
2023-02-06T06:51:56.493Z,10.82
2023-02-06T06:56:58.277Z,11.07
2023-02-06T07:02:04.908Z,11.63
2023-02-06T07:07:08.935Z,8.82
2023-02-06T07:12:31.826Z,12.05
2023-02-06T07:17:33.450Z,13.75
2023-02-06T07:22:35.207Z,13.65
2023-02-06T07:27:40.643Z,15.57
2023-02-06T07:32:43.343Z,10.82
2023-02-06T07:37:53.131Z,8.18
2023-02-06T07:43:03.550Z,6.20
2023-02-06T07:48:10.184Z,7.38
2023-02-06T07:53:16.487Z,9.82
2023-02-06T07:58:20.429Z,6.60
2023-02-06T08:03:32.993Z,7.32
2023-02-06T08:08:38.821Z,9.35
2023-02-06T08:13:46.172Z,7.88
2023-02-06T08:18:57.276Z,10.27
2023-02-06T08:24:01.852Z,8.48
2023-02-06T08:29:09.948Z,6.20
2023-02-06T08:34:14.713Z,8.13
2023-02-06T08:39:19.239Z,6.75
2023-02-06T08:44:23.044Z,9.18
2023-02-06T08:49:29.114Z,10.32
2023-02-06T08:54:37.745Z,13.75
2023-02-06T08:59:45.695Z,8.65
2023-02-06T09:04:52.689Z,9.55
2023-02-06T09:09:54.224Z,9.27
2023-02-06T09:15:02.833Z,8.32
2023-02-06T09:20:15.089Z,9.60
2023-02-06T09:25:25.506Z,7.30
2023-02-06T09:30:29.465Z,9.82
2023-02-06T09:35:34.694Z,9.20
2023-02-06T09:40:37.187Z,9.40
2023-02-06T09:45:42.189Z,8.50
2023-02-06T09:51:10.718Z,10.33
2023-02-06T09:56:54.502Z,10.32
2023-02-06T10:02:18.970Z,7.73
2023-02-06T10:07:26.828Z,10.98
2023-02-06T10:12:41.278Z,10.68
2023-02-06T10:17:53.405Z,6.78
2023-02-06T10:23:26.970Z,10.23
2023-02-06T10:28:35.391Z,7.72
2023-02-06T10:34:00.175Z,7.28
2023-02-06T10:39:32.678Z,5.70
2023-02-06T10:45:09.819Z,7.25
2023-02-06T10:50:44.471Z,3.80
2023-02-06T10:55:57.400Z,5.38
2023-02-06T11:01:25.596Z,7.50
2023-02-06T11:06:30.641Z,6.82
2023-02-06T11:11:37.964Z,7.88
2023-02-06T11:16:42.633Z,5.17
2023-02-06T11:21:57.547Z,14.50
2023-02-06T11:27:13.356Z,69.80
2023-02-06T11:32:52.766Z,63.75
2023-02-06T11:38:21.368Z,12.15
2023-02-06T11:43:32.142Z,11.93
2023-02-06T11:48:41.068Z,28.27
2023-02-06T11:53:56.751Z,10.55
2023-02-06T11:59:23.446Z,10.20
2023-02-06T12:04:34.581Z,8.48
2023-02-06T12:09:36.203Z,11.23
2023-02-06T12:15:10.278Z,8.38
2023-02-06T12:20:33.522Z,12.98
2023-02-06T12:25:41.642Z,12.38
2023-02-06T12:30:59.204Z,9.60
2023-02-06T12:36:11.574Z,10.10
2023-02-06T12:41:47.338Z,9.98
2023-02-06T12:46:57.272Z,8.63
2023-02-06T12:52:27.823Z,9.13
2023-02-06T13:03:06.802Z,8.45
2023-02-06T13:08:26.557Z,8.32
2023-02-06T13:13:43.164Z,9.18
2023-02-06T13:18:55.221Z,6.78
2023-02-06T13:24:02.892Z,7.72
2023-02-06T13:29:32.048Z,10.57
2023-02-06T13:34:40.603Z,9.13
2023-02-06T13:39:50.637Z,12.02
2023-02-06T13:44:59.461Z,11.30
2023-02-06T13:50:34.780Z,10.05
2023-02-06T13:55:48.197Z,10.52
2023-02-06T14:00:54.235Z,13.77
2023-02-06T14:06:11.242Z,13.20
2023-02-06T14:11:59.257Z,11.60
2023-02-06T14:17:24.763Z,11.73
2023-02-06T14:22:32.723Z,9.98
2023-02-06T14:28:04.468Z,13.27
2023-02-06T14:33:27.301Z,10.95
2023-02-06T14:38:56.821Z,12.85
2023-02-06T14:44:03.453Z,16.85
2023-02-06T14:49:16.513Z,11.65
2023-02-06T14:54:33.040Z,10.50
2023-02-06T14:59:36.986Z,13.70
2023-02-06T15:04:53.173Z,13.95
2023-02-06T15:09:57.598Z,13.18
2023-02-06T15:15:22.601Z,15.95
2023-02-06T15:20:35.415Z,16.70
2023-02-06T15:25:49.697Z,12.05
2023-02-06T15:31:03.653Z,19.88
2023-02-06T15:36:05.548Z,15.25
2023-02-06T15:41:18.490Z,13.60
2023-02-06T15:46:20.388Z,16.85
2023-02-06T15:51:39.326Z,17.50
2023-02-06T15:56:43.564Z,16.65
2023-02-06T16:01:45.204Z,22.00
2023-02-06T16:06:58.705Z,14.88
2023-02-06T16:12:01.913Z,11.70
2023-02-06T16:17:17.879Z,11.35
2023-02-06T16:22:29.719Z,14.10
2023-02-06T16:27:35.826Z,14.40
2023-02-06T16:32:37.528Z,13.38
2023-02-06T16:37:50.888Z,13.02
2023-02-06T16:47:58.589Z,15.73
2023-02-06T16:53:05.502Z,15.50
2023-02-06T16:58:11.276Z,13.82
2023-02-06T17:08:31.313Z,14.07
2023-02-06T17:13:40.300Z,15.63
2023-02-06T17:18:47.366Z,11.85
2023-02-06T17:23:57.314Z,13.77
2023-02-06T17:29:14.924Z,15.98
2023-02-06T17:34:23.282Z,14.27
2023-02-06T17:39:32.256Z,13.68
2023-02-06T17:44:35.845Z,13.50
2023-02-06T17:49:39.975Z,18.50
2023-02-06T17:54:46.296Z,15.60
2023-02-06T17:59:50.693Z,13.60
2023-02-06T18:04:55.422Z,14.90
2023-02-06T18:10:09.043Z,14.43
2023-02-06T18:15:12.913Z,19.27
2023-02-06T18:20:20.217Z,19.40
2023-02-06T18:25:29.362Z,16.98
2023-02-06T18:30:31.448Z,17.08
2023-02-06T18:35:38.409Z,14.82
2023-02-06T18:40:49.980Z,18.25
2023-02-06T18:46:16.279Z,17.48
2023-02-06T18:51:18.112Z,20.02
2023-02-06T18:56:27.681Z,20.70
2023-02-06T19:01:32.206Z,22.63
2023-02-06T19:06:44.116Z,20.17
2023-02-06T19:11:50.570Z,16.43
2023-02-06T19:17:01.978Z,23.35
2023-02-06T19:22:08.806Z,22.63
2023-02-06T19:27:13.507Z,22.95
2023-02-06T19:32:22.805Z,21.73
2023-02-06T19:37:30.639Z,24.23
2023-02-06T19:42:50.432Z,24.67
2023-02-06T19:47:56.620Z,28.50
2023-02-06T19:53:00.631Z,25.25
2023-02-06T19:58:03.171Z,27.17
2023-02-06T20:03:12.700Z,27.10
2023-02-06T20:08:17.606Z,25.27
2023-02-06T20:13:21.512Z,24.10
2023-02-06T20:18:26.698Z,25.48
2023-02-06T20:23:29.014Z,22.48
2023-02-06T20:28:35.568Z,30.48
2023-02-06T20:33:42.538Z,22.10
2023-02-06T20:38:53.731Z,21.05
2023-02-06T20:43:57.305Z,20.77
2023-02-06T20:49:03.215Z,22.75
2023-02-06T20:54:05.269Z,21.77
2023-02-06T20:59:34.217Z,18.60
2023-02-06T21:04:43.116Z,20.35
2023-02-06T21:09:51.820Z,17.67
2023-02-06T21:14:55.668Z,22.02
2023-02-06T21:19:57.280Z,23.10
2023-02-06T21:24:59.937Z,21.58
2023-02-06T21:30:07.672Z,20.70
2023-02-06T21:35:12.302Z,18.75
2023-02-06T21:40:18.163Z,19.48
2023-02-06T21:45:27.027Z,19.27
2023-02-06T21:50:33.225Z,15.85
2023-02-06T21:55:41.973Z,22.20
2023-02-06T22:00:48.417Z,20.88
2023-02-06T22:05:52.316Z,17.83
2023-02-06T22:10:56.516Z,25.30
2023-02-06T22:15:58.091Z,27.35
2023-02-06T22:21:23.344Z,31.77
2023-02-06T22:26:39.112Z,32.78
2023-02-06T22:31:43.160Z,27.00
2023-02-06T22:36:49.426Z,25.83
2023-02-06T22:41:51.448Z,21.00
2023-02-06T22:47:00.145Z,21.00
2023-02-06T22:52:27.204Z,21.52
2023-02-06T22:57:38.276Z,25.23
2023-02-06T23:03:09.634Z,22.17
2023-02-06T23:08:13.235Z,20.20
2023-02-06T23:13:17.227Z,26.33
2023-02-06T23:18:19.867Z,19.08
2023-02-06T23:23:23.772Z,20.25
2023-02-06T23:28:30.949Z,23.90
2023-02-06T23:33:32.564Z,20.40
2023-02-06T23:38:36.574Z,26.63
2023-02-06T23:43:45.855Z,21.55
2023-02-06T23:48:52.806Z,26.92
2023-02-06T23:53:57.019Z,22.77
2023-02-06T23:59:00.557Z,24.52
